createdAt,value
2023-08-14T00:04:36.730Z,100536.84
2023-08-14T00:09:41.140Z,100536.44
2023-08-14T00:14:44.596Z,100533.53
2023-08-14T00:19:48.400Z,100534.78
2023-08-14T00:24:52.637Z,100538.91
2023-08-14T00:29:56.090Z,100536.44
2023-08-14T00:35:00.098Z,100529.22
2023-08-14T00:40:04.409Z,100537.47
2023-08-14T00:45:08.515Z,100539.28
2023-08-14T00:50:13.291Z,100542.63
2023-08-14T00:55:22.889Z,100551.50
2023-08-14T01:00:29.536Z,100557.03
2023-08-14T01:05:33.974Z,100555.00
2023-08-14T01:10:55.769Z,100558.69
2023-08-14T01:16:02.892Z,100557.47
2023-08-14T01:21:14.787Z,100552.47
2023-08-14T01:26:18.614Z,100536.72
2023-08-14T01:31:22.078Z,100540.44
2023-08-14T01:36:39.359Z,100552.63
2023-08-14T01:41:42.869Z,100556.31
2023-08-14T01:46:48.343Z,100549.69
2023-08-14T01:51:54.188Z,100548.81
2023-08-14T01:56:58.545Z,100553.31
2023-08-14T02:02:02.047Z,100567.81
2023-08-14T02:07:07.197Z,100556.22
2023-08-14T02:12:10.662Z,100559.28
2023-08-14T02:17:14.233Z,100565.22
2023-08-14T02:22:17.923Z,100577.56
2023-08-14T02:27:21.573Z,100560.19
2023-08-14T02:32:25.012Z,100562.66
2023-08-14T02:37:28.774Z,100555.00
2023-08-14T02:42:32.320Z,100569.84
2023-08-14T02:47:35.807Z,100564.69
2023-08-14T02:52:39.062Z,100569.19
2023-08-14T02:57:42.585Z,100571.81
2023-08-14T03:02:47.608Z,100565.41
2023-08-14T03:07:51.423Z,100564.13
2023-08-14T03:12:54.856Z,100575.44
2023-08-14T03:17:58.716Z,100574.56
2023-08-14T03:23:02.228Z,100581.13
2023-08-14T03:28:06.179Z,100588.28
2023-08-14T03:33:09.865Z,100571.06
2023-08-14T03:38:13.285Z,100589.47
2023-08-14T03:43:16.737Z,100589.50
2023-08-14T03:48:20.230Z,100591.38
2023-08-14T03:53:23.672Z,100602.59
2023-08-14T03:58:27.194Z,100605.72
2023-08-14T04:03:32.027Z,100605.34
2023-08-14T04:08:35.721Z,100613.88
2023-08-14T04:13:39.184Z,100611.84
2023-08-14T04:18:42.618Z,100616.22
2023-08-14T04:23:46.358Z,100631.97
2023-08-14T04:28:50.255Z,100627.13
2023-08-14T04:33:53.671Z,100615.00
2023-08-14T04:38:57.153Z,100612.44
2023-08-14T04:44:00.709Z,100628.06
2023-08-14T04:49:04.919Z,100624.59
2023-08-14T04:54:08.336Z,100615.19
2023-08-14T04:59:11.745Z,100622.28
2023-08-14T05:04:15.292Z,100622.78
2023-08-14T05:09:26.447Z,100624.06
2023-08-14T05:14:31.175Z,100625.97
2023-08-14T05:19:34.658Z,100631.38
2023-08-14T05:24:38.127Z,100626.00
2023-08-14T05:29:41.570Z,100623.50
2023-08-14T05:34:45.246Z,100635.25
2023-08-14T05:39:48.421Z,100638.72
2023-08-14T05:44:51.899Z,100635.88
2023-08-14T05:49:55.329Z,100639.50
2023-08-14T05:55:00.432Z,100641.47
2023-08-14T06:00:05.048Z,100639.25
2023-08-14T06:05:09.574Z,100635.38
2023-08-14T06:10:13.219Z,100643.06
2023-08-14T06:15:17.449Z,100637.50
2023-08-14T06:20:21.594Z,100649.50
2023-08-14T06:25:26.631Z,100647.44
2023-08-14T06:30:31.071Z,100650.94
2023-08-14T06:35:34.423Z,100652.34
2023-08-14T06:40:37.816Z,100652.06
2023-08-14T06:45:41.270Z,100645.44
2023-08-14T06:50:44.859Z,100655.72
2023-08-14T06:55:48.716Z,100647.78
2023-08-14T07:00:51.985Z,100650.19
2023-08-14T07:05:55.814Z,100655.81
2023-08-14T07:10:59.705Z,100641.69
2023-08-14T07:16:03.593Z,100655.22
2023-08-14T07:21:09.045Z,100660.34
2023-08-14T07:26:16.373Z,100654.00
2023-08-14T07:31:19.833Z,100645.78
2023-08-14T07:36:23.390Z,100639.91
2023-08-14T07:41:26.806Z,100648.72
2023-08-14T07:46:30.352Z,100643.75
2023-08-14T07:51:33.868Z,100650.38
2023-08-14T07:56:37.753Z,100644.56
2023-08-14T08:01:42.588Z,100638.84
2023-08-14T08:06:46.556Z,100628.75
2023-08-14T08:11:50.218Z,100632.31
2023-08-14T08:16:54.168Z,100629.88
2023-08-14T08:21:57.618Z,100632.50
2023-08-14T08:27:01.258Z,100629.97
2023-08-14T08:32:05.280Z,100637.94
2023-08-14T08:37:08.673Z,100640.84
2023-08-14T08:42:13.008Z,100635.47
2023-08-14T08:47:18.043Z,100634.75
2023-08-14T08:52:22.433Z,100634.41
2023-08-14T08:57:26.322Z,100626.06
2023-08-14T09:02:29.920Z,100624.84
2023-08-14T09:07:34.428Z,100615.88
2023-08-14T09:12:37.924Z,100612.66
2023-08-14T09:17:42.298Z,100607.50
2023-08-14T09:22:45.957Z,100604.00
2023-08-14T09:27:49.507Z,100598.50
2023-08-14T09:32:53.178Z,100599.06
2023-08-14T09:37:57.008Z,100601.19
2023-08-14T09:43:01.754Z,100598.09
2023-08-14T09:48:05.809Z,100587.41
2023-08-14T09:53:10.019Z,100590.34
2023-08-14T09:58:13.511Z,100588.91
2023-08-14T10:03:18.002Z,100588.56
2023-08-14T10:08:21.364Z,100586.56
2023-08-14T10:13:26.576Z,100576.66
2023-08-14T10:18:30.964Z,100567.41
2023-08-14T10:23:35.592Z,100557.25
2023-08-14T10:28:39.264Z,100561.25
2023-08-14T10:33:43.066Z,100554.84
2023-08-14T10:38:48.125Z,100548.78
2023-08-14T10:43:51.849Z,100544.16
2023-08-14T10:48:55.360Z,100541.88
2023-08-14T10:54:16.145Z,100542.34
2023-08-14T10:59:24.441Z,100535.69
2023-08-14T11:04:28.404Z,100525.00
2023-08-14T11:09:35.805Z,100520.78
2023-08-14T11:14:41.480Z,100519.97
2023-08-14T11:19:44.902Z,100510.78
2023-08-14T11:24:50.397Z,100504.91
2023-08-14T11:29:56.068Z,100501.66
2023-08-14T11:35:01.632Z,100503.94
2023-08-14T11:40:08.045Z,100500.28
2023-08-14T11:45:12.004Z,100501.09
2023-08-14T11:50:16.655Z,100487.47
2023-08-14T11:55:20.265Z,100502.22
2023-08-14T12:00:30.189Z,100490.75
2023-08-14T12:05:37.181Z,100490.38
2023-08-14T12:10:41.497Z,100490.31
2023-08-14T12:15:47.635Z,100484.47
2023-08-14T12:21:00.222Z,100494.25
2023-08-14T12:26:08.226Z,100486.75
2023-08-14T12:31:13.264Z,100477.78
2023-08-14T12:36:16.698Z,100476.22
2023-08-14T12:41:20.285Z,100473.19
2023-08-14T12:46:23.776Z,100478.88
2023-08-14T12:51:27.338Z,100488.06
2023-08-14T12:56:31.647Z,100466.56
2023-08-14T13:01:35.387Z,100463.22
2023-08-14T13:06:39.163Z,100461.16
2023-08-14T13:11:42.650Z,100456.84
2023-08-14T13:16:46.108Z,100459.72
2023-08-14T13:21:49.614Z,100461.06
2023-08-14T13:26:53.256Z,100448.22
2023-08-14T13:31:56.714Z,100445.88
2023-08-14T13:37:00.114Z,100434.09
2023-08-14T13:42:03.725Z,100434.50
2023-08-14T13:47:07.436Z,100433.97
2023-08-14T13:52:10.886Z,100431.72
2023-08-14T13:57:14.354Z,100428.72
2023-08-14T14:02:17.987Z,100417.16
2023-08-14T14:07:24.680Z,100425.13
2023-08-14T14:12:30.292Z,100412.09
2023-08-14T14:17:33.698Z,100415.72
2023-08-14T14:22:37.683Z,100406.03
2023-08-14T14:27:41.271Z,100410.16
2023-08-14T14:32:44.807Z,100404.69
2023-08-14T14:37:48.451Z,100405.47
2023-08-14T14:42:52.692Z,100409.06
2023-08-14T14:47:56.339Z,100410.78
2023-08-14T14:52:59.755Z,100407.69
2023-08-14T14:58:03.277Z,100399.06
2023-08-14T15:03:06.825Z,100406.66
2023-08-14T15:08:10.332Z,100404.09
2023-08-14T15:13:13.757Z,100398.53
2023-08-14T15:18:17.617Z,100389.94
2023-08-14T15:23:21.054Z,100386.56
2023-08-14T15:28:25.935Z,100381.59
2023-08-14T15:33:29.328Z,100379.81
2023-08-14T15:38:32.778Z,100370.91
2023-08-14T15:43:36.556Z,100379.28
2023-08-14T15:48:41.254Z,100375.06
2023-08-14T15:53:44.647Z,100371.94
2023-08-14T15:58:48.094Z,100368.19
2023-08-14T16:03:51.493Z,100370.38
2023-08-14T16:08:56.353Z,100363.59
2023-08-14T16:13:59.834Z,100367.47
2023-08-14T16:19:03.490Z,100367.38
2023-08-14T16:24:07.162Z,100370.63
2023-08-14T16:29:12.074Z,100365.91
2023-08-14T16:34:15.473Z,100363.00
2023-08-14T16:39:19.685Z,100364.47
2023-08-14T16:44:23.231Z,100354.13
2023-08-14T16:49:27.497Z,100359.72
2023-08-14T16:54:30.945Z,100365.09
2023-08-14T16:59:34.342Z,100372.16
2023-08-14T17:04:37.804Z,100369.53
2023-08-14T17:09:41.169Z,100374.75
2023-08-14T17:14:45.367Z,100373.50
2023-08-14T17:19:49.157Z,100390.81
2023-08-14T17:24:54.658Z,100380.72
2023-08-14T17:29:58.780Z,100386.50
2023-08-14T17:35:02.370Z,100380.66
2023-08-14T17:40:07.971Z,100389.16
2023-08-14T17:45:11.561Z,100392.63
2023-08-14T17:50:15.065Z,100397.03
2023-08-14T17:55:18.300Z,100406.84
2023-08-14T18:00:21.790Z,100418.25
2023-08-14T18:05:25.194Z,100429.81
2023-08-14T18:10:28.645Z,100426.97
2023-08-14T18:15:32.099Z,100434.19
2023-08-14T18:20:35.624Z,100442.69
2023-08-14T18:25:40.408Z,100438.09
2023-08-14T18:30:43.855Z,100447.22
2023-08-14T18:35:47.980Z,100462.84
2023-08-14T18:40:51.402Z,100459.94
2023-08-14T18:45:55.652Z,100465.53
2023-08-14T18:50:59.238Z,100471.28
2023-08-14T18:56:02.922Z,100484.88
2023-08-14T19:01:06.323Z,100487.06
2023-08-14T19:06:09.804Z,100483.53
2023-08-14T19:11:13.209Z,100486.28
2023-08-14T19:16:17.190Z,100488.72
2023-08-14T19:21:23.753Z,100484.59
2023-08-14T19:26:28.458Z,100489.84
2023-08-14T19:31:32.310Z,100486.88
2023-08-14T19:36:35.900Z,100493.41
2023-08-14T19:41:39.269Z,100496.50
2023-08-14T19:46:42.907Z,100492.31
2023-08-14T19:51:46.246Z,100488.00
2023-08-14T19:56:49.686Z,100516.19
2023-08-14T20:01:55.251Z,100506.31
2023-08-14T20:06:59.669Z,100500.22
2023-08-14T20:12:04.709Z,100519.16
2023-08-14T20:17:08.899Z,100512.09
2023-08-14T20:22:12.373Z,100504.91
2023-08-14T20:27:15.810Z,100520.44
2023-08-14T20:32:20.409Z,100513.94
2023-08-14T20:37:23.896Z,100515.31
2023-08-14T20:42:27.398Z,100506.50
2023-08-14T20:47:30.927Z,100508.00
2023-08-14T20:52:34.385Z,100512.84
2023-08-14T20:57:37.987Z,100515.88
2023-08-14T21:02:41.445Z,100509.72
2023-08-14T21:07:44.878Z,100495.69
2023-08-14T21:12:48.293Z,100500.03
2023-08-14T21:17:51.693Z,100506.28
2023-08-14T21:22:55.148Z,100505.53
2023-08-14T21:27:59.320Z,100513.06
2023-08-14T21:33:03.215Z,100504.81
2023-08-14T21:38:06.772Z,100508.78
2023-08-14T21:43:10.315Z,100512.63
2023-08-14T21:48:13.825Z,100506.84
2023-08-14T21:53:19.838Z,100508.31
2023-08-14T21:58:23.234Z,100509.47
2023-08-14T22:03:26.775Z,100499.59
2023-08-14T22:08:31.072Z,100504.59
2023-08-14T22:13:35.225Z,100510.75
2023-08-14T22:18:38.902Z,100503.81
2023-08-14T22:23:43.062Z,100508.47
2023-08-14T22:28:46.476Z,100505.47
2023-08-14T22:33:50.107Z,100493.91
2023-08-14T22:38:53.521Z,100502.25
2023-08-14T22:43:56.936Z,100500.22
2023-08-14T22:49:00.463Z,100508.72
2023-08-14T22:54:04.224Z,100501.97
2023-08-14T22:59:07.681Z,100506.22
2023-08-14T23:04:11.116Z,100494.88
2023-08-14T23:09:14.534Z,100499.50
2023-08-14T23:14:17.952Z,100497.50
2023-08-14T23:19:21.730Z,100496.88
2023-08-14T23:24:25.478Z,100497.75
2023-08-14T23:29:29.071Z,100497.59
2023-08-14T23:34:32.490Z,100494.72
2023-08-14T23:39:35.856Z,100493.31
2023-08-14T23:44:39.387Z,100493.53
2023-08-14T23:49:43.169Z,100491.69
2023-08-14T23:54:46.830Z,100490.88
2023-08-14T23:59:50.428Z,100506.03
